sensor_id;sensor_type;location;lat;lon;timestamp;temperature;humidity
1786;DHT22;890;48.158;11.540;2023-05-07T00:00:36;16.20;86.90
1786;DHT22;890;48.158;11.540;2023-05-07T00:03:03;16.20;87.00
1786;DHT22;890;48.158;11.540;2023-05-07T00:05:28;16.20;87.20
1786;DHT22;890;48.158;11.540;2023-05-07T00:07:54;16.10;87.20
1786;DHT22;890;48.158;11.540;2023-05-07T00:10:19;16.10;87.30
1786;DHT22;890;48.158;11.540;2023-05-07T00:12:45;16.10;87.50
1786;DHT22;890;48.158;11.540;2023-05-07T00:15:11;16.10;87.70
1786;DHT22;890;48.158;11.540;2023-05-07T00:17:37;16.10;88.00
1786;DHT22;890;48.158;11.540;2023-05-07T00:20:03;16.10;88.00
1786;DHT22;890;48.158;11.540;2023-05-07T00:22:30;16.10;88.30
1786;DHT22;890;48.158;11.540;2023-05-07T00:24:56;16.10;88.40
1786;DHT22;890;48.158;11.540;2023-05-07T00:27:22;16.10;88.50
1786;DHT22;890;48.158;11.540;2023-05-07T00:29:48;16.00;88.70
1786;DHT22;890;48.158;11.540;2023-05-07T00:32:13;16.00;89.10
1786;DHT22;890;48.158;11.540;2023-05-07T00:34:39;16.00;89.20
1786;DHT22;890;48.158;11.540;2023-05-07T00:37:05;16.20;89.50
1786;DHT22;890;48.158;11.540;2023-05-07T00:39:33;16.00;90.00
1786;DHT22;890;48.158;11.540;2023-05-07T00:41:59;15.90;89.60
1786;DHT22;890;48.158;11.540;2023-05-07T00:44:24;15.90;90.00
1786;DHT22;890;48.158;11.540;2023-05-07T00:46:50;15.90;90.10
1786;DHT22;890;48.158;11.540;2023-05-07T00:49:16;15.90;90.20
1786;DHT22;890;48.158;11.540;2023-05-07T00:51:42;15.90;90.30
1786;DHT22;890;48.158;11.540;2023-05-07T00:54:08;15.90;90.30
1786;DHT22;890;48.158;11.540;2023-05-07T00:56:34;15.90;90.30
1786;DHT22;890;48.158;11.540;2023-05-07T00:59:02;15.90;90.40
1786;DHT22;890;48.158;11.540;2023-05-07T01:01:28;15.90;90.80
1786;DHT22;890;48.158;11.540;2023-05-07T01:03:53;15.90;90.50
1786;DHT22;890;48.158;11.540;2023-05-07T01:06:20;16.00;90.50
1786;DHT22;890;48.158;11.540;2023-05-07T01:08:47;16.00;90.60
1786;DHT22;890;48.158;11.540;2023-05-07T01:11:16;16.00;90.60
1786;DHT22;890;48.158;11.540;2023-05-07T01:13:42;16.00;90.60
1786;DHT22;890;48.158;11.540;2023-05-07T01:16:09;16.00;90.60
1786;DHT22;890;48.158;11.540;2023-05-07T01:18:34;16.00;90.70
1786;DHT22;890;48.158;11.540;2023-05-07T01:21:01;16.00;90.70
1786;DHT22;890;48.158;11.540;2023-05-07T01:23:29;16.00;90.80
1786;DHT22;890;48.158;11.540;2023-05-07T01:25:56;16.00;90.70
1786;DHT22;890;48.158;11.540;2023-05-07T01:28:22;16.00;90.70
1786;DHT22;890;48.158;11.540;2023-05-07T01:30:51;15.90;90.80
1786;DHT22;890;48.158;11.540;2023-05-07T01:33:20;15.90;91.00
1786;DHT22;890;48.158;11.540;2023-05-07T01:35:50;15.90;91.10
1786;DHT22;890;48.158;11.540;2023-05-07T01:38:17;16.00;91.20
1786;DHT22;890;48.158;11.540;2023-05-07T01:40:43;15.80;91.20
1786;DHT22;890;48.158;11.540;2023-05-07T01:43:09;15.80;91.30
1786;DHT22;890;48.158;11.540;2023-05-07T01:45:35;15.80;91.40
1786;DHT22;890;48.158;11.540;2023-05-07T01:48:02;15.80;91.50
1786;DHT22;890;48.158;11.540;2023-05-07T01:50:28;15.80;91.60
1786;DHT22;890;48.158;11.540;2023-05-07T01:52:55;15.70;91.60
1786;DHT22;890;48.158;11.540;2023-05-07T01:55:21;15.70;91.70
1786;DHT22;890;48.158;11.540;2023-05-07T01:57:46;15.70;91.80
1786;DHT22;890;48.158;11.540;2023-05-07T02:00:12;15.70;92.00
1786;DHT22;890;48.158;11.540;2023-05-07T02:02:38;15.60;92.00
1786;DHT22;890;48.158;11.540;2023-05-07T02:05:04;15.60;92.20
1786;DHT22;890;48.158;11.540;2023-05-07T02:07:30;15.50;92.20
1786;DHT22;890;48.158;11.540;2023-05-07T02:09:55;15.50;92.20
1786;DHT22;890;48.158;11.540;2023-05-07T02:12:22;15.50;92.30
1786;DHT22;890;48.158;11.540;2023-05-07T02:14:48;15.50;92.50
1786;DHT22;890;48.158;11.540;2023-05-07T02:17:13;15.50;92.60
1786;DHT22;890;48.158;11.540;2023-05-07T02:19:39;15.50;92.70
1786;DHT22;890;48.158;11.540;2023-05-07T02:22:05;15.50;92.80
1786;DHT22;890;48.158;11.540;2023-05-07T02:24:30;15.50;92.90
1786;DHT22;890;48.158;11.540;2023-05-07T02:26:56;15.50;92.90
1786;DHT22;890;48.158;11.540;2023-05-07T02:29:21;15.50;93.10
1786;DHT22;890;48.158;11.540;2023-05-07T02:31:47;15.40;93.00
1786;DHT22;890;48.158;11.540;2023-05-07T02:34:16;15.40;93.10
1786;DHT22;890;48.158;11.540;2023-05-07T02:36:42;15.50;93.20
1786;DHT22;890;48.158;11.540;2023-05-07T02:39:08;15.40;93.30
1786;DHT22;890;48.158;11.540;2023-05-07T02:41:33;15.40;93.40
1786;DHT22;890;48.158;11.540;2023-05-07T02:43:59;15.40;93.50
1786;DHT22;890;48.158;11.540;2023-05-07T02:46:25;15.40;93.50
1786;DHT22;890;48.158;11.540;2023-05-07T02:48:50;15.30;93.50
1786;DHT22;890;48.158;11.540;2023-05-07T02:51:19;15.30;93.60
1786;DHT22;890;48.158;11.540;2023-05-07T02:53:45;15.20;93.70
1786;DHT22;890;48.158;11.540;2023-05-07T02:56:11;15.30;93.90
1786;DHT22;890;48.158;11.540;2023-05-07T02:58:36;15.20;94.00
1786;DHT22;890;48.158;11.540;2023-05-07T03:01:05;15.30;94.20
1786;DHT22;890;48.158;11.540;2023-05-07T03:03:30;15.20;94.20
1786;DHT22;890;48.158;11.540;2023-05-07T03:05:56;15.30;94.30
1786;DHT22;890;48.158;11.540;2023-05-07T03:08:21;15.20;94.20
1786;DHT22;890;48.158;11.540;2023-05-07T03:10:47;15.20;94.40
1786;DHT22;890;48.158;11.540;2023-05-07T03:13:13;15.20;94.50
1786;DHT22;890;48.158;11.540;2023-05-07T03:15:38;15.20;94.50
1786;DHT22;890;48.158;11.540;2023-05-07T03:18:04;15.10;94.50
1786;DHT22;890;48.158;11.540;2023-05-07T03:20:29;15.10;94.70
1786;DHT22;890;48.158;11.540;2023-05-07T03:22:55;15.10;94.60
1786;DHT22;890;48.158;11.540;2023-05-07T03:25:21;15.10;94.80
1786;DHT22;890;48.158;11.540;2023-05-07T03:27:47;15.10;94.80
1786;DHT22;890;48.158;11.540;2023-05-07T03:30:12;15.10;94.80
1786;DHT22;890;48.158;11.540;2023-05-07T03:32:38;15.10;94.90
1786;DHT22;890;48.158;11.540;2023-05-07T03:35:04;15.00;95.00
1786;DHT22;890;48.158;11.540;2023-05-07T03:37:30;15.00;95.10
1786;DHT22;890;48.158;11.540;2023-05-07T03:39:55;15.00;95.20
1786;DHT22;890;48.158;11.540;2023-05-07T03:42:21;15.00;95.20
1786;DHT22;890;48.158;11.540;2023-05-07T03:44:47;15.00;95.30
1786;DHT22;890;48.158;11.540;2023-05-07T03:47:12;15.00;95.40
1786;DHT22;890;48.158;11.540;2023-05-07T03:49:39;15.00;95.40
1786;DHT22;890;48.158;11.540;2023-05-07T03:52:05;15.00;95.30
1786;DHT22;890;48.158;11.540;2023-05-07T03:54:30;15.10;95.40
1786;DHT22;890;48.158;11.540;2023-05-07T03:56:56;15.00;95.40
1786;DHT22;890;48.158;11.540;2023-05-07T03:59:22;15.00;95.50
1786;DHT22;890;48.158;11.540;2023-05-07T04:01:47;15.00;95.50
1786;DHT22;890;48.158;11.540;2023-05-07T04:04:14;15.00;95.40
1786;DHT22;890;48.158;11.540;2023-05-07T04:06:40;15.00;95.50
1786;DHT22;890;48.158;11.540;2023-05-07T04:09:05;14.90;95.50
1786;DHT22;890;48.158;11.540;2023-05-07T04:11:32;14.90;95.60
1786;DHT22;890;48.158;11.540;2023-05-07T04:13:57;14.90;95.80
1786;DHT22;890;48.158;11.540;2023-05-07T04:16:23;14.90;95.80
1786;DHT22;890;48.158;11.540;2023-05-07T04:18:48;14.90;95.90
1786;DHT22;890;48.158;11.540;2023-05-07T04:21:18;14.90;96.00
1786;DHT22;890;48.158;11.540;2023-05-07T04:23:44;14.80;96.00
1786;DHT22;890;48.158;11.540;2023-05-07T04:26:10;14.90;96.00
1786;DHT22;890;48.158;11.540;2023-05-07T04:28:35;15.00;96.10
1786;DHT22;890;48.158;11.540;2023-05-07T04:31:01;14.90;96.20
1786;DHT22;890;48.158;11.540;2023-05-07T04:33:27;15.00;96.20
1786;DHT22;890;48.158;11.540;2023-05-07T04:35:52;15.00;96.30
1786;DHT22;890;48.158;11.540;2023-05-07T04:38:18;15.00;96.50
1786;DHT22;890;48.158;11.540;2023-05-07T04:40:44;15.10;96.50
1786;DHT22;890;48.158;11.540;2023-05-07T04:43:10;15.20;96.50
1786;DHT22;890;48.158;11.540;2023-05-07T04:45:36;15.20;96.40
1786;DHT22;890;48.158;11.540;2023-05-07T04:48:02;15.30;96.50
1786;DHT22;890;48.158;11.540;2023-05-07T04:50:27;15.40;96.50
1786;DHT22;890;48.158;11.540;2023-05-07T04:52:53;15.40;96.70
1786;DHT22;890;48.158;11.540;2023-05-07T04:55:19;15.40;96.20
1786;DHT22;890;48.158;11.540;2023-05-07T04:57:44;15.40;96.20
1786;DHT22;890;48.158;11.540;2023-05-07T05:00:10;15.40;96.20
1786;DHT22;890;48.158;11.540;2023-05-07T05:02:39;15.40;96.20
1786;DHT22;890;48.158;11.540;2023-05-07T05:05:05;15.40;96.20
1786;DHT22;890;48.158;11.540;2023-05-07T05:07:31;15.50;96.20
1786;DHT22;890;48.158;11.540;2023-05-07T05:09:56;15.60;96.20
1786;DHT22;890;48.158;11.540;2023-05-07T05:12:23;15.60;96.20
1786;DHT22;890;48.158;11.540;2023-05-07T05:14:48;15.70;96.20
1786;DHT22;890;48.158;11.540;2023-05-07T05:17:14;15.70;96.10
1786;DHT22;890;48.158;11.540;2023-05-07T05:19:39;15.80;96.10
1786;DHT22;890;48.158;11.540;2023-05-07T05:22:05;15.80;96.10
1786;DHT22;890;48.158;11.540;2023-05-07T05:24:31;15.90;96.10
1786;DHT22;890;48.158;11.540;2023-05-07T05:26:56;16.00;96.10
1786;DHT22;890;48.158;11.540;2023-05-07T05:29:22;16.10;96.00
1786;DHT22;890;48.158;11.540;2023-05-07T05:31:48;16.10;95.90
1786;DHT22;890;48.158;11.540;2023-05-07T05:34:14;16.30;95.90
1786;DHT22;890;48.158;11.540;2023-05-07T05:36:39;16.40;95.60
1786;DHT22;890;48.158;11.540;2023-05-07T05:39:06;16.50;95.40
1786;DHT22;890;48.158;11.540;2023-05-07T05:41:31;16.70;95.20
1786;DHT22;890;48.158;11.540;2023-05-07T05:43:57;16.80;95.20
1786;DHT22;890;48.158;11.540;2023-05-07T05:46:22;16.90;95.00
1786;DHT22;890;48.158;11.540;2023-05-07T05:48:48;17.10;94.60
1786;DHT22;890;48.158;11.540;2023-05-07T05:51:14;17.10;93.90
1786;DHT22;890;48.158;11.540;2023-05-07T05:53:39;17.30;93.60
1786;DHT22;890;48.158;11.540;2023-05-07T05:56:05;17.30;93.30
1786;DHT22;890;48.158;11.540;2023-05-07T05:58:31;17.30;93.00
1786;DHT22;890;48.158;11.540;2023-05-07T06:00:57;17.40;93.00
1786;DHT22;890;48.158;11.540;2023-05-07T06:03:23;17.60;93.10
1786;DHT22;890;48.158;11.540;2023-05-07T06:05:48;17.70;93.00
1786;DHT22;890;48.158;11.540;2023-05-07T06:08:14;17.80;92.50
1786;DHT22;890;48.158;11.540;2023-05-07T06:10:40;18.00;92.40
1786;DHT22;890;48.158;11.540;2023-05-07T06:13:06;18.10;92.00
1786;DHT22;890;48.158;11.540;2023-05-07T06:15:31;18.20;91.30
1786;DHT22;890;48.158;11.540;2023-05-07T06:17:57;18.20;91.00
1786;DHT22;890;48.158;11.540;2023-05-07T06:20:23;18.30;90.70
1786;DHT22;890;48.158;11.540;2023-05-07T06:22:48;18.40;90.70
1786;DHT22;890;48.158;11.540;2023-05-07T06:25:14;18.50;90.20
1786;DHT22;890;48.158;11.540;2023-05-07T06:27:40;18.60;89.90
1786;DHT22;890;48.158;11.540;2023-05-07T06:30:06;18.70;89.40
1786;DHT22;890;48.158;11.540;2023-05-07T06:32:32;18.80;88.80
1786;DHT22;890;48.158;11.540;2023-05-07T06:34:57;18.90;88.50
1786;DHT22;890;48.158;11.540;2023-05-07T06:37:23;19.10;88.10
1786;DHT22;890;48.158;11.540;2023-05-07T06:39:49;19.20;86.70
1786;DHT22;890;48.158;11.540;2023-05-07T06:42:14;19.10;85.70
1786;DHT22;890;48.158;11.540;2023-05-07T06:44:40;19.20;85.40
1786;DHT22;890;48.158;11.540;2023-05-07T06:47:06;19.30;84.70
1786;DHT22;890;48.158;11.540;2023-05-07T06:49:31;19.40;83.60
1786;DHT22;890;48.158;11.540;2023-05-07T06:51:57;19.40;82.90
1786;DHT22;890;48.158;11.540;2023-05-07T06:54:23;19.50;82.20
1786;DHT22;890;48.158;11.540;2023-05-07T06:56:49;19.50;82.00
1786;DHT22;890;48.158;11.540;2023-05-07T06:59:16;19.50;81.70
1786;DHT22;890;48.158;11.540;2023-05-07T07:01:42;19.60;80.90
1786;DHT22;890;48.158;11.540;2023-05-07T07:04:07;19.70;80.80
1786;DHT22;890;48.158;11.540;2023-05-07T07:06:33;19.80;80.00
1786;DHT22;890;48.158;11.540;2023-05-07T07:08:59;19.90;79.40
1786;DHT22;890;48.158;11.540;2023-05-07T07:11:25;20.00;79.40
1786;DHT22;890;48.158;11.540;2023-05-07T07:13:50;20.10;79.30
1786;DHT22;890;48.158;11.540;2023-05-07T07:16:16;20.30;78.90
1786;DHT22;890;48.158;11.540;2023-05-07T07:18:42;20.40;78.10
1786;DHT22;890;48.158;11.540;2023-05-07T07:21:07;20.50;77.30
1786;DHT22;890;48.158;11.540;2023-05-07T07:23:33;20.60;76.60
1786;DHT22;890;48.158;11.540;2023-05-07T07:25:59;20.70;76.30
1786;DHT22;890;48.158;11.540;2023-05-07T07:28:24;20.70;75.20
1786;DHT22;890;48.158;11.540;2023-05-07T07:30:50;20.80;75.00
1786;DHT22;890;48.158;11.540;2023-05-07T07:33:15;20.80;74.30
1786;DHT22;890;48.158;11.540;2023-05-07T07:35:41;20.90;74.00
1786;DHT22;890;48.158;11.540;2023-05-07T07:38:07;20.90;73.30
1786;DHT22;890;48.158;11.540;2023-05-07T07:40:34;21.00;73.40
1786;DHT22;890;48.158;11.540;2023-05-07T07:43:00;21.10;72.70
1786;DHT22;890;48.158;11.540;2023-05-07T07:45:26;21.30;72.80
1786;DHT22;890;48.158;11.540;2023-05-07T07:47:52;21.30;72.60
1786;DHT22;890;48.158;11.540;2023-05-07T07:50:18;21.40;72.20
1786;DHT22;890;48.158;11.540;2023-05-07T07:52:44;21.40;71.40
1786;DHT22;890;48.158;11.540;2023-05-07T07:55:09;21.40;71.30
1786;DHT22;890;48.158;11.540;2023-05-07T07:57:35;21.60;70.90
1786;DHT22;890;48.158;11.540;2023-05-07T08:00:01;21.60;70.50
1786;DHT22;890;48.158;11.540;2023-05-07T08:02:27;21.70;70.50
1786;DHT22;890;48.158;11.540;2023-05-07T08:04:52;21.70;70.00
1786;DHT22;890;48.158;11.540;2023-05-07T08:07:18;21.70;69.60
1786;DHT22;890;48.158;11.540;2023-05-07T08:09:46;21.80;69.30
1786;DHT22;890;48.158;11.540;2023-05-07T08:12:11;21.80;68.90
1786;DHT22;890;48.158;11.540;2023-05-07T08:14:37;21.70;69.70
1786;DHT22;890;48.158;11.540;2023-05-07T08:17:03;21.80;69.80
1786;DHT22;890;48.158;11.540;2023-05-07T08:19:28;21.90;69.50
1786;DHT22;890;48.158;11.540;2023-05-07T08:21:54;22.00;68.80
1786;DHT22;890;48.158;11.540;2023-05-07T08:24:21;22.00;68.70
1786;DHT22;890;48.158;11.540;2023-05-07T08:26:46;21.90;68.40
1786;DHT22;890;48.158;11.540;2023-05-07T08:29:12;21.90;68.50
1786;DHT22;890;48.158;11.540;2023-05-07T08:31:37;22.00;68.50
1786;DHT22;890;48.158;11.540;2023-05-07T08:34:06;22.00;68.40
1786;DHT22;890;48.158;11.540;2023-05-07T08:36:32;22.10;67.70
1786;DHT22;890;48.158;11.540;2023-05-07T08:38:57;22.80;64.00
1786;DHT22;890;48.158;11.540;2023-05-07T08:41:23;22.60;65.00
1786;DHT22;890;48.158;11.540;2023-05-07T08:43:49;22.50;64.90
1786;DHT22;890;48.158;11.540;2023-05-07T08:46:20;22.50;64.80
1786;DHT22;890;48.158;11.540;2023-05-07T08:48:52;22.40;65.00
1786;DHT22;890;48.158;11.540;2023-05-07T08:51:20;22.40;64.60
1786;DHT22;890;48.158;11.540;2023-05-07T08:53:47;22.40;65.40
1786;DHT22;890;48.158;11.540;2023-05-07T08:56:16;22.50;65.80
1786;DHT22;890;48.158;11.540;2023-05-07T08:58:43;22.60;66.20
1786;DHT22;890;48.158;11.540;2023-05-07T09:01:11;22.70;65.10
1786;DHT22;890;48.158;11.540;2023-05-07T09:03:39;22.80;64.60
1786;DHT22;890;48.158;11.540;2023-05-07T09:06:05;22.90;64.10
1786;DHT22;890;48.158;11.540;2023-05-07T09:08:33;23.00;64.10
1786;DHT22;890;48.158;11.540;2023-05-07T09:10:59;23.10;63.90
1786;DHT22;890;48.158;11.540;2023-05-07T09:13:26;23.10;63.20
1786;DHT22;890;48.158;11.540;2023-05-07T09:15:52;23.10;63.10
1786;DHT22;890;48.158;11.540;2023-05-07T09:18:17;23.20;64.30
1786;DHT22;890;48.158;11.540;2023-05-07T09:20:43;23.40;62.10
1786;DHT22;890;48.158;11.540;2023-05-07T09:23:09;23.50;61.80
1786;DHT22;890;48.158;11.540;2023-05-07T09:25:36;23.60;61.50
1786;DHT22;890;48.158;11.540;2023-05-07T09:28:03;23.70;61.00
1786;DHT22;890;48.158;11.540;2023-05-07T09:30:33;23.80;61.00
1786;DHT22;890;48.158;11.540;2023-05-07T09:32:59;23.80;60.00
1786;DHT22;890;48.158;11.540;2023-05-07T09:35:26;24.10;60.50
1786;DHT22;890;48.158;11.540;2023-05-07T09:37:58;24.50;63.30
1786;DHT22;890;48.158;11.540;2023-05-07T09:40:27;25.20;63.30
1786;DHT22;890;48.158;11.540;2023-05-07T09:42:53;26.00;61.70
1786;DHT22;890;48.158;11.540;2023-05-07T09:45:26;26.70;60.40
1786;DHT22;890;48.158;11.540;2023-05-07T09:47:57;27.40;58.70
1786;DHT22;890;48.158;11.540;2023-05-07T09:50:34;28.10;57.50
1786;DHT22;890;48.158;11.540;2023-05-07T09:53:01;28.60;55.30
1786;DHT22;890;48.158;11.540;2023-05-07T09:55:28;29.20;54.00
1786;DHT22;890;48.158;11.540;2023-05-07T09:57:55;29.70;52.70
1786;DHT22;890;48.158;11.540;2023-05-07T10:00:22;30.00;53.30
1786;DHT22;890;48.158;11.540;2023-05-07T10:02:51;30.10;53.00
1786;DHT22;890;48.158;11.540;2023-05-07T10:05:19;30.20;51.40
1786;DHT22;890;48.158;11.540;2023-05-07T10:07:46;30.00;50.90
1786;DHT22;890;48.158;11.540;2023-05-07T10:10:12;29.90;49.90
1786;DHT22;890;48.158;11.540;2023-05-07T10:12:40;29.70;50.20
1786;DHT22;890;48.158;11.540;2023-05-07T10:15:10;29.60;49.40
1786;DHT22;890;48.158;11.540;2023-05-07T10:17:37;29.60;49.40
1786;DHT22;890;48.158;11.540;2023-05-07T10:20:04;29.60;50.60
1786;DHT22;890;48.158;11.540;2023-05-07T10:22:38;29.30;47.90
1786;DHT22;890;48.158;11.540;2023-05-07T10:25:09;28.80;47.20
1786;DHT22;890;48.158;11.540;2023-05-07T10:27:37;28.60;46.60
1786;DHT22;890;48.158;11.540;2023-05-07T10:32:50;27.60;45.70
1786;DHT22;890;48.158;11.540;2023-05-07T10:35:20;27.70;46.40
1786;DHT22;890;48.158;11.540;2023-05-07T10:37:47;28.00;47.20
1786;DHT22;890;48.158;11.540;2023-05-07T10:40:13;28.40;47.40
1786;DHT22;890;48.158;11.540;2023-05-07T10:42:39;28.60;45.20
1786;DHT22;890;48.158;11.540;2023-05-07T10:45:18;28.40;45.70
1786;DHT22;890;48.158;11.540;2023-05-07T10:50:35;29.10;45.00
1786;DHT22;890;48.158;11.540;2023-05-07T10:53:21;29.80;44.50
1786;DHT22;890;48.158;11.540;2023-05-07T10:55:49;30.20;42.30
1786;DHT22;890;48.158;11.540;2023-05-07T11:00:47;30.60;42.90
1786;DHT22;890;48.158;11.540;2023-05-07T11:03:13;30.80;43.20
1786;DHT22;890;48.158;11.540;2023-05-07T11:05:40;30.80;42.90
1786;DHT22;890;48.158;11.540;2023-05-07T11:08:07;30.90;42.70
1786;DHT22;890;48.158;11.540;2023-05-07T11:10:53;30.80;42.00
1786;DHT22;890;48.158;11.540;2023-05-07T11:18:55;29.50;42.30
1786;DHT22;890;48.158;11.540;2023-05-07T11:24:00;28.90;42.00
1786;DHT22;890;48.158;11.540;2023-05-07T11:26:27;28.60;42.60
1786;DHT22;890;48.158;11.540;2023-05-07T11:28:53;28.20;42.90
1786;DHT22;890;48.158;11.540;2023-05-07T11:31:22;27.70;43.10
1786;DHT22;890;48.158;11.540;2023-05-07T11:33:48;27.20;43.30
1786;DHT22;890;48.158;11.540;2023-05-07T11:36:15;26.90;44.10
1786;DHT22;890;48.158;11.540;2023-05-07T11:38:41;26.60;44.70
1786;DHT22;890;48.158;11.540;2023-05-07T11:41:07;26.90;46.20
1786;DHT22;890;48.158;11.540;2023-05-07T11:43:33;27.30;46.00
1786;DHT22;890;48.158;11.540;2023-05-07T11:46:11;27.70;45.10
1786;DHT22;890;48.158;11.540;2023-05-07T11:48:38;27.80;43.70
1786;DHT22;890;48.158;11.540;2023-05-07T11:51:05;28.30;43.90
1786;DHT22;890;48.158;11.540;2023-05-07T11:53:38;29.00;43.80
1786;DHT22;890;48.158;11.540;2023-05-07T11:56:12;29.60;41.90
1786;DHT22;890;48.158;11.540;2023-05-07T11:58:39;30.10;41.30
1786;DHT22;890;48.158;11.540;2023-05-07T12:01:07;30.00;41.00
1786;DHT22;890;48.158;11.540;2023-05-07T12:03:35;29.90;40.90
1786;DHT22;890;48.158;11.540;2023-05-07T12:06:02;30.10;41.00
1786;DHT22;890;48.158;11.540;2023-05-07T12:08:30;30.20;40.80
1786;DHT22;890;48.158;11.540;2023-05-07T12:10:56;30.00;40.30
1786;DHT22;890;48.158;11.540;2023-05-07T12:13:23;29.80;40.50
1786;DHT22;890;48.158;11.540;2023-05-07T12:15:54;29.70;40.40
1786;DHT22;890;48.158;11.540;2023-05-07T12:18:21;29.60;40.50
1786;DHT22;890;48.158;11.540;2023-05-07T12:20:47;29.30;39.80
1786;DHT22;890;48.158;11.540;2023-05-07T12:23:14;29.20;40.30
1786;DHT22;890;48.158;11.540;2023-05-07T12:25:41;29.00;40.50
1786;DHT22;890;48.158;11.540;2023-05-07T12:28:13;28.70;40.80
1786;DHT22;890;48.158;11.540;2023-05-07T12:30:41;28.80;41.50
1786;DHT22;890;48.158;11.540;2023-05-07T12:33:07;28.80;41.90
1786;DHT22;890;48.158;11.540;2023-05-07T12:35:38;28.80;41.40
1786;DHT22;890;48.158;11.540;2023-05-07T12:38:11;28.70;41.20
1786;DHT22;890;48.158;11.540;2023-05-07T12:40:42;28.40;41.50
1786;DHT22;890;48.158;11.540;2023-05-07T12:43:18;28.10;41.50
1786;DHT22;890;48.158;11.540;2023-05-07T12:45:46;27.70;41.40
1786;DHT22;890;48.158;11.540;2023-05-07T12:48:12;27.50;41.90
1786;DHT22;890;48.158;11.540;2023-05-07T12:50:37;27.30;42.20
1786;DHT22;890;48.158;11.540;2023-05-07T12:53:04;27.20;42.40
1786;DHT22;890;48.158;11.540;2023-05-07T12:55:31;27.10;42.60
1786;DHT22;890;48.158;11.540;2023-05-07T12:58:01;26.90;42.70
1786;DHT22;890;48.158;11.540;2023-05-07T13:00:34;26.70;43.10
1786;DHT22;890;48.158;11.540;2023-05-07T13:03:00;26.60;43.00
1786;DHT22;890;48.158;11.540;2023-05-07T13:05:26;26.70;43.00
1786;DHT22;890;48.158;11.540;2023-05-07T13:07:58;26.60;43.00
1786;DHT22;890;48.158;11.540;2023-05-07T13:10:24;26.40;42.70
1786;DHT22;890;48.158;11.540;2023-05-07T13:12:50;26.40;43.10
1786;DHT22;890;48.158;11.540;2023-05-07T13:15:16;26.50;43.30
1786;DHT22;890;48.158;11.540;2023-05-07T13:17:42;26.50;43.00
1786;DHT22;890;48.158;11.540;2023-05-07T13:20:11;26.30;42.80
1786;DHT22;890;48.158;11.540;2023-05-07T13:22:38;26.10;42.80
1786;DHT22;890;48.158;11.540;2023-05-07T13:25:04;26.10;42.80
1786;DHT22;890;48.158;11.540;2023-05-07T13:27:30;26.10;42.90
1786;DHT22;890;48.158;11.540;2023-05-07T13:29:56;26.10;42.70
1786;DHT22;890;48.158;11.540;2023-05-07T13:32:22;26.20;43.00
1786;DHT22;890;48.158;11.540;2023-05-07T13:34:47;26.10;42.50
1786;DHT22;890;48.158;11.540;2023-05-07T13:37:13;26.20;42.60
1786;DHT22;890;48.158;11.540;2023-05-07T13:39:39;26.10;42.60
1786;DHT22;890;48.158;11.540;2023-05-07T13:42:04;26.20;42.30
1786;DHT22;890;48.158;11.540;2023-05-07T13:44:30;26.10;42.70
1786;DHT22;890;48.158;11.540;2023-05-07T13:46:55;26.10;42.90
1786;DHT22;890;48.158;11.540;2023-05-07T13:49:21;26.10;43.20
1786;DHT22;890;48.158;11.540;2023-05-07T13:51:46;26.10;43.70
1786;DHT22;890;48.158;11.540;2023-05-07T13:54:12;26.10;43.30
1786;DHT22;890;48.158;11.540;2023-05-07T13:56:38;26.10;43.20
1786;DHT22;890;48.158;11.540;2023-05-07T13:59:03;26.10;43.30
1786;DHT22;890;48.158;11.540;2023-05-07T14:01:29;26.00;43.30
1786;DHT22;890;48.158;11.540;2023-05-07T14:03:56;25.90;43.60
1786;DHT22;890;48.158;11.540;2023-05-07T14:06:22;25.80;43.60
1786;DHT22;890;48.158;11.540;2023-05-07T14:08:47;25.70;44.00
1786;DHT22;890;48.158;11.540;2023-05-07T14:11:13;25.60;44.00
1786;DHT22;890;48.158;11.540;2023-05-07T14:13:38;25.60;44.30
1786;DHT22;890;48.158;11.540;2023-05-07T14:16:04;25.60;44.30
1786;DHT22;890;48.158;11.540;2023-05-07T14:18:30;25.60;44.20
1786;DHT22;890;48.158;11.540;2023-05-07T14:20:56;25.60;44.40
1786;DHT22;890;48.158;11.540;2023-05-07T14:23:21;25.40;44.20
1786;DHT22;890;48.158;11.540;2023-05-07T14:25:54;25.30;44.70
1786;DHT22;890;48.158;11.540;2023-05-07T14:28:21;25.30;45.00
1786;DHT22;890;48.158;11.540;2023-05-07T14:30:47;25.40;45.30
1786;DHT22;890;48.158;11.540;2023-05-07T14:33:13;25.30;45.20
1786;DHT22;890;48.158;11.540;2023-05-07T14:35:39;25.20;45.70
1786;DHT22;890;48.158;11.540;2023-05-07T14:38:04;25.10;46.00
1786;DHT22;890;48.158;11.540;2023-05-07T14:40:30;25.00;46.10
1786;DHT22;890;48.158;11.540;2023-05-07T14:42:55;24.90;46.50
1786;DHT22;890;48.158;11.540;2023-05-07T14:45:22;24.80;46.70
1786;DHT22;890;48.158;11.540;2023-05-07T14:47:48;24.80;46.50
1786;DHT22;890;48.158;11.540;2023-05-07T14:50:13;24.80;46.70
1786;DHT22;890;48.158;11.540;2023-05-07T14:52:39;24.80;46.80
1786;DHT22;890;48.158;11.540;2023-05-07T14:55:05;24.70;46.90
1786;DHT22;890;48.158;11.540;2023-05-07T14:57:31;24.70;47.00
1786;DHT22;890;48.158;11.540;2023-05-07T15:00:00;24.70;47.10
1786;DHT22;890;48.158;11.540;2023-05-07T15:02:27;24.70;47.30
1786;DHT22;890;48.158;11.540;2023-05-07T15:04:53;24.50;48.10
1786;DHT22;890;48.158;11.540;2023-05-07T15:07:19;24.40;47.90
1786;DHT22;890;48.158;11.540;2023-05-07T15:09:44;24.40;48.40
1786;DHT22;890;48.158;11.540;2023-05-07T15:12:10;24.30;48.50
1786;DHT22;890;48.158;11.540;2023-05-07T15:14:37;24.30;48.40
1786;DHT22;890;48.158;11.540;2023-05-07T15:17:03;24.20;48.80
1786;DHT22;890;48.158;11.540;2023-05-07T15:19:29;24.30;49.10
1786;DHT22;890;48.158;11.540;2023-05-07T15:21:59;24.10;49.20
1786;DHT22;890;48.158;11.540;2023-05-07T15:24:28;24.00;49.50
1786;DHT22;890;48.158;11.540;2023-05-07T15:26:54;24.00;49.40
1786;DHT22;890;48.158;11.540;2023-05-07T15:29:20;23.90;49.60
1786;DHT22;890;48.158;11.540;2023-05-07T15:31:46;23.90;49.90
1786;DHT22;890;48.158;11.540;2023-05-07T15:34:12;23.80;49.90
1786;DHT22;890;48.158;11.540;2023-05-07T15:36:40;23.70;50.00
1786;DHT22;890;48.158;11.540;2023-05-07T15:39:06;23.70;50.20
1786;DHT22;890;48.158;11.540;2023-05-07T15:41:31;23.60;50.60
1786;DHT22;890;48.158;11.540;2023-05-07T15:43:58;23.50;50.40
1786;DHT22;890;48.158;11.540;2023-05-07T15:46:25;23.50;50.30
1786;DHT22;890;48.158;11.540;2023-05-07T15:48:54;23.40;50.40
1786;DHT22;890;48.158;11.540;2023-05-07T15:51:20;23.20;50.40
1786;DHT22;890;48.158;11.540;2023-05-07T15:53:47;23.20;50.60
1786;DHT22;890;48.158;11.540;2023-05-07T15:56:12;23.10;50.80
1786;DHT22;890;48.158;11.540;2023-05-07T15:58:38;23.00;50.80
1786;DHT22;890;48.158;11.540;2023-05-07T16:01:04;23.00;50.80
1786;DHT22;890;48.158;11.540;2023-05-07T16:03:30;23.00;50.80
1786;DHT22;890;48.158;11.540;2023-05-07T16:05:56;22.90;50.80
1786;DHT22;890;48.158;11.540;2023-05-07T16:08:27;22.80;50.60
1786;DHT22;890;48.158;11.540;2023-05-07T16:10:53;22.70;50.70
1786;DHT22;890;48.158;11.540;2023-05-07T16:13:19;22.70;50.60